Time;durP1;ratioP1;P1;durP2;ratioP2;P2;SDS_P1;SDS_P2;PMS_P1;PMS_P2;Temp;Humidity;BMP_temperature;BMP_pressure;BME280_temperature;BME280_humidity;BME280_pressure;Samples;Min_cycle;Max_cycle;Signal;HPM_P1;HPM_P2
2023/01/22 00:08:29;;;;;;;29.67;3.78;;;;;;;21.87;39.86;102296.03;21081199;28;20028;-63
2023/01/22 00:18:30;;;;;;;33.67;4.32;;;;;;;21.93;39.87;102289.44;21074155;28;20449;-63
2023/01/22 00:28:32;;;;;;;87.18;8.60;;;;;;;21.97;39.62;102279.47;21074220;28;20074;-64
2023/01/22 00:38:34;;;;;;;78.47;7.30;;;;;;;21.82;39.49;102233.53;21050346;28;20483;-64
2023/01/22 00:48:35;;;;;;;86.10;10.10;;;;;;;22.06;39.66;102256.47;21069542;28;20028;-64
2023/01/22 00:58:40;;;;;;;47.42;6.45;;;;;;;21.79;39.64;102196.97;21049955;28;20044;-63
2023/01/22 01:08:43;;;;;;;54.95;6.75;;;;;;;22.12;39.61;102250.97;21053552;28;20048;-62
2023/01/22 01:18:45;;;;;;;71.32;8.38;;;;;;;22.12;39.19;102243.47;21078255;28;20044;-63
2023/01/22 01:28:46;;;;;;;59.90;7.78;;;;;;;22.19;39.11;102266.44;21078095;28;20488;-63
2023/01/22 01:38:48;;;;;;;48.75;6.55;;;;;;;22.16;38.58;102271.69;21077356;28;20478;-63
2023/01/22 01:48:54;;;;;;;39.58;7.05;;;;;;;22.13;38.33;102292.56;21077005;28;20047;-65
2023/01/22 01:59:03;;;;;;;34.60;5.63;;;;;;;22.16;38.54;102308.75;21075094;28;20036;-65
2023/01/22 02:09:04;;;;;;;;;;;;;;;22.16;38.48;102305.97;21077452;28;20058;-63
2023/01/22 02:19:08;;;;;;;28.75;4.85;;;;;;;22.18;38.10;102297.38;21075392;28;20248;-64
2023/01/22 02:29:13;;;;;;;23.63;4.40;;;;;;;22.13;37.81;102300.06;21075214;28;20044;-63
2023/01/22 02:39:17;;;;;;;23.02;4.65;;;;;;;22.11;37.75;102291.09;21085443;28;20047;-65
2023/01/22 02:49:18;;;;;;;18.98;4.35;;;;;;;22.05;37.84;102276.25;21090715;28;20097;-63
2023/01/22 02:59:20;;;;;;;13.60;4.20;;;;;;;22.02;37.55;102279.53;21090060;28;20040;-64
2023/01/22 03:09:21;;;;;;;15.75;3.95;;;;;;;21.98;37.51;102278.34;21089265;28;20369;-63
2023/01/22 03:29:43;;;;;;;13.85;4.00;;;;;;;21.93;37.44;102272.69;21088276;28;20043;-63
2023/01/22 03:39:47;;;;;;;10.80;3.35;;;;;;;21.89;37.14;102299.38;21086863;28;20028;-65
2023/01/22 03:49:49;;;;;;;10.63;3.10;;;;;;;21.85;37.33;102310.19;21084347;28;20047;-64
2023/01/22 03:59:50;;;;;;;12.88;3.92;;;;;;;21.81;37.37;102276.44;21081884;28;20442;-65
2023/01/22 04:09:51;;;;;;;6.57;2.97;;;;;;;21.72;37.14;102261.25;21083852;28;20107;-65
2023/01/22 04:19:53;;;;;;;6.60;2.90;;;;;;;21.70;37.28;102274.59;21081376;28;20112;-64
2023/01/22 04:29:57;;;;;;;8.77;2.90;;;;;;;21.66;37.47;102251.09;21082776;28;20052;-66
2023/01/22 04:39:58;;;;;;;10.88;2.97;;;;;;;21.73;36.82;102240.66;21082105;28;20434;-63
2023/01/22 04:49:59;;;;;;;6.90;2.78;;;;;;;21.73;37.20;102212.78;21081330;28;20036;-64
2023/01/22 05:00:01;;;;;;;4.70;2.13;;;;;;;21.78;37.11;102198.09;21079940;28;20093;-64
2023/01/22 05:10:02;;;;;;;3.88;2.63;;;;;;;21.77;36.97;102190.84;21076457;28;20085;-63
2023/01/22 05:20:07;;;;;;;3.60;2.20;;;;;;;21.83;36.98;102224.06;21078569;28;20113;-63
2023/01/22 05:30:10;;;;;;;3.88;2.35;;;;;;;21.87;36.93;102212.44;21078321;28;20058;-63
2023/01/22 05:40:11;;;;;;;4.25;2.22;;;;;;;21.91;36.88;102202.47;21077365;28;20043;-64
2023/01/22 05:50:13;;;;;;;3.70;2.33;;;;;;;21.92;36.75;102210.56;21076035;28;20040;-64
2023/01/22 06:00:15;;;;;;;4.40;2.85;;;;;;;21.95;36.68;102242.66;21062846;28;20040;-64
2023/01/22 06:10:22;;;;;;;40.38;23.08;;;;;;;21.95;36.51;102240.69;21071584;28;20043;-64
2023/01/22 06:20:24;;;;;;;52.20;30.85;;;;;;;21.97;36.37;102251.59;21088707;28;20406;-64
2023/01/22 06:30:31;;;;;;;60.53;35.03;;;;;;;21.96;36.15;102263.84;21084907;28;20032;-65
2023/01/22 06:40:33;;;;;;;59.05;34.63;;;;;;;21.78;35.91;102226.78;21081237;28;20548;-64
2023/01/22 06:50:37;;;;;;;58.45;34.28;;;;;;;21.97;36.04;102280.28;21043871;28;20037;-64
2023/01/22 07:00:38;;;;;;;53.33;31.92;;;;;;;21.97;35.99;102297.03;21034990;28;20043;-64
2023/01/22 07:10:40;;;;;;;55.20;32.13;;;;;;;21.88;36.13;102276.25;21079198;28;20032;-64
2023/01/22 07:20:44;;;;;;;54.55;32.03;;;;;;;21.82;35.88;102247.47;21050504;28;20118;-64
2023/01/22 07:30:46;;;;;;;51.22;30.08;;;;;;;21.96;36.32;102259.09;21003587;28;20049;-63
2023/01/22 07:40:48;;;;;;;46.95;29.33;;;;;;;21.95;36.43;102260.22;21082644;28;20399;-65
2023/01/22 07:50:49;;;;;;;46.25;28.15;;;;;;;21.96;36.33;102239.59;21083077;28;20062;-64
2023/01/22 08:00:53;;;;;;;43.88;27.30;;;;;;;21.98;36.06;102236.53;21071280;28;20479;-63
2023/01/22 08:10:58;;;;;;;41.72;25.50;;;;;;;21.95;36.04;102237.06;21056457;28;20024;-64
2023/01/22 08:21:03;;;;;;;38.83;24.67;;;;;;;21.73;35.98;102190.50;21083191;28;20051;-63
2023/01/22 08:31:04;;;;;;;37.42;23.85;;;;;;;21.94;36.04;102224.22;21080724;28;20109;-63
2023/01/22 08:41:09;;;;;;;35.05;22.63;;;;;;;21.91;35.85;102203.28;21080858;28;20089;-63
2023/01/22 08:51:11;;;;;;;33.13;20.70;;;;;;;21.89;35.85;102165.63;21081551;28;20052;-63
2023/01/22 09:01:16;;;;;;;31.50;20.17;;;;;;;21.73;36.25;102157.06;21079877;28;20036;-64
2023/01/22 09:11:18;;;;;;;30.42;18.67;;;;;;;21.82;35.89;102191.75;21079476;28;20054;-64
2023/01/22 09:21:20;;;;;;;25.42;16.75;;;;;;;21.79;35.95;102200.59;21072830;28;20051;-64
2023/01/22 09:31:21;;;;;;;26.83;17.17;;;;;;;21.76;35.95;102209.50;21073575;28;20040;-64
2023/01/22 09:41:33;;;;;;;27.13;15.00;;;;;;;21.61;35.99;102181.41;21073567;28;20044;-64
2023/01/22 09:51:35;;;;;;;20.50;13.32;;;;;;;21.74;35.38;102181.03;21073706;28;20044;-63
2023/01/22 10:01:37;;;;;;;15.68;10.93;;;;;;;21.75;35.29;102177.13;21073916;28;20044;-64
2023/01/22 10:11:39;;;;;;;14.23;9.13;;;;;;;21.79;35.43;102183.88;21071947;28;20527;-64
2023/01/22 10:21:51;;;;;;;13.77;9.70;;;;;;;21.69;35.65;102121.63;21072460;28;20052;-63
2023/01/22 10:32:01;;;;;;;10.50;7.60;;;;;;;21.88;34.92;102130.50;21073219;28;20101;-65
2023/01/22 10:42:02;;;;;;;10.93;7.68;;;;;;;21.90;35.41;102125.50;21068860;28;20041;-64
2023/01/22 10:52:18;;;;;;;9.90;7.20;;;;;;;21.93;35.19;102127.78;21068290;28;20429;-64
2023/01/22 11:02:24;;;;;;;9.98;6.53;;;;;;;21.96;35.14;102127.28;21076430;28;20097;-65
2023/01/22 11:12:35;;;;;;;7.38;5.60;;;;;;;21.65;34.81;102064.72;21073963;28;20040;-62
2023/01/22 11:22:44;;;;;;;8.57;5.57;;;;;;;22.03;34.40;102133.47;21081578;28;20055;-63
2023/01/22 11:32:51;;;;;;;6.90;5.18;;;;;;;22.05;34.48;102153.59;21076948;28;20040;-64
2023/01/22 11:43:30;;;;;;;6.18;4.78;;;;;;;22.00;34.93;102139.59;21081030;28;20093;-64
2023/01/22 11:53:44;;;;;;;6.80;5.07;;;;;;;22.05;34.27;102114.56;21081488;28;20040;-65
2023/01/22 12:04:06;;;;;;;7.28;4.75;;;;;;;22.02;34.62;102099.19;21083794;28;20048;-62
2023/01/22 12:14:09;;;;;;;5.25;4.05;;;;;;;22.03;34.38;102083.31;21082612;28;20044;-63
2023/01/22 12:24:22;;;;;;;5.72;3.85;;;;;;;21.99;34.93;102048.69;21080485;28;20040;-65
2023/01/22 12:34:33;;;;;;;5.40;4.28;;;;;;;22.00;34.35;102061.56;21079130;28;20051;-63
2023/01/22 12:44:43;;;;;;;5.00;4.22;;;;;;;21.98;34.36;102080.47;21076367;28;20089;-63
2023/01/22 12:54:55;;;;;;;4.88;4.15;;;;;;;21.96;34.70;102116.13;21076285;28;20040;-63
2023/01/22 13:05:17;;;;;;;4.75;3.70;;;;;;;21.77;35.53;102088.59;21073335;28;20054;-64
2023/01/22 13:15:35;;;;;;;4.28;3.72;;;;;;;21.98;35.94;102128.69;21075336;28;20047;-64
2023/01/22 13:25:41;;;;;;;4.85;4.15;;;;;;;21.97;35.66;102090.78;21076479;28;20056;-64
2023/01/22 13:35:45;;;;;;;6.13;3.80;;;;;;;21.99;36.09;102084.94;21075452;28;20058;-64
2023/01/22 13:45:46;;;;;;;5.00;4.00;;;;;;;21.96;36.16;102079.91;21073628;28;20441;-64
2023/01/22 13:55:48;;;;;;;4.40;3.70;;;;;;;21.87;35.93;102039.66;21073118;28;20583;-64
2023/01/22 14:06:00;;;;;;;3.95;3.53;;;;;;;21.94;35.94;102068.16;21072585;28;20156;-64
2023/01/22 14:16:05;;;;;;;4.30;3.63;;;;;;;21.96;35.81;102018.59;21044856;28;20032;-63
2023/01/22 14:26:07;;;;;;;5.03;3.85;;;;;;;21.93;35.98;102055.31;21056380;28;20564;-64
2023/01/22 14:36:09;;;;;;;4.20;3.28;;;;;;;21.92;35.98;102073.16;21082863;28;20097;-64
2023/01/22 14:46:10;;;;;;;3.88;2.80;;;;;;;21.96;35.24;102061.22;21085139;28;20495;-64
2023/01/22 14:56:12;;;;;;;2.70;2.50;;;;;;;21.98;35.36;102008.84;21082701;28;20109;-64
2023/01/22 15:06:13;;;;;;;3.33;2.50;;;;;;;22.02;35.56;102032.28;21081023;28;20048;-64
2023/01/22 15:16:14;;;;;;;3.17;2.42;;;;;;;22.04;35.70;102030.09;21058215;28;20056;-65
2023/01/22 15:26:26;;;;;;;2.50;2.30;;;;;;;22.03;35.81;101966.25;21085636;28;20452;-65
2023/01/22 15:36:28;;;;;;;2.20;2.03;;;;;;;22.18;35.84;101983.16;21083081;28;20099;-63
2023/01/22 15:46:35;;;;;;;2.67;2.20;;;;;;;22.23;35.68;102019.44;21085998;28;20047;-63
2023/01/22 15:56:37;;;;;;;6.43;4.72;;;;;;;22.22;35.51;101981.53;21084412;28;20097;-64
2023/01/22 16:06:38;;;;;;;12.68;8.00;;;;;;;22.13;35.55;101943.22;21074924;28;20066;-63
2023/01/22 16:16:40;;;;;;;15.23;8.80;;;;;;;22.35;35.45;101940.34;21057762;28;20448;-67
2023/01/22 16:26:41;;;;;;;20.33;9.32;;;;;;;22.33;35.29;101910.78;21059246;28;20048;-65
2023/01/22 16:36:47;;;;;;;35.78;10.18;;;;;;;22.36;35.99;101919.72;21061192;28;20111;-62
2023/01/22 16:46:53;;;;;;;23.77;9.93;;;;;;;22.38;36.39;101895.22;21071491;28;20097;-65
2023/01/22 16:56:55;;;;;;;27.65;9.63;;;;;;;22.41;36.42;101869.59;21067802;28;20044;-66
2023/01/22 17:06:58;;;;;;;20.13;9.32;;;;;;;22.41;36.32;101822.19;21075304;28;20445;-65
2023/01/22 17:17:06;;;;;;;23.20;9.30;;;;;;;22.37;35.96;101787.56;21044517;28;20411;-65
2023/01/22 17:27:10;;;;;;;22.03;8.27;;;;;;;22.46;36.00;101774.78;21055312;28;20041;-66
2023/01/22 17:37:12;;;;;;;17.20;7.60;;;;;;;22.44;35.42;101766.66;21073741;28;20040;-65
2023/01/22 17:47:16;;;;;;;18.05;7.80;;;;;;;22.44;35.50;101749.09;21062992;28;20040;-65
2023/01/22 17:57:17;;;;;;;14.48;7.63;;;;;;;22.29;35.17;101674.59;21069779;28;20036;-64
2023/01/22 18:07:19;;;;;;;16.77;6.93;;;;;;;22.42;34.92;101653.72;21073498;28;20040;-65
2023/01/22 18:17:20;;;;;;;13.80;6.57;;;;;;;22.42;34.97;101649.00;21046417;28;20044;-64
2023/01/22 18:27:22;;;;;;;15.63;6.05;;;;;;;22.40;35.22;101655.94;21018483;28;20036;-64
2023/01/22 18:37:24;;;;;;;12.68;5.78;;;;;;;22.40;35.30;101637.25;21068271;28;20567;-63
2023/01/22 18:47:25;;;;;;;9.52;5.43;;;;;;;22.29;34.71;101602.09;21062393;28;20040;-65
2023/01/22 18:58:26;;;;;;;8.57;5.07;;;;;;;22.37;35.26;101621.09;21043944;28;20048;-65
2023/01/22 19:08:30;;;;;;;6.35;4.53;;;;;;;22.40;34.53;101625.25;21063008;28;20044;-65
2023/01/22 19:18:32;;;;;;;6.43;4.47;;;;;;;22.40;34.95;101589.00;21072026;28;20047;-64
2023/01/22 19:28:34;;;;;;;6.00;4.10;;;;;;;22.39;34.32;101612.44;21073326;28;20161;-65
2023/01/22 19:38:35;;;;;;;10.00;4.50;;;;;;;22.39;35.22;101584.56;21081192;28;20376;-64
2023/01/22 19:48:38;;;;;;;7.70;4.35;;;;;;;22.39;35.12;101542.72;21057269;28;20041;-64
2023/01/22 19:58:40;;;;;;;8.30;4.82;;;;;;;22.43;36.48;101547.47;21071962;28;20043;-63
2023/01/22 20:08:41;;;;;;;6.95;3.97;;;;;;;22.50;36.22;101513.75;21068110;28;20040;-66
2023/01/22 20:18:43;;;;;;;6.57;4.07;;;;;;;22.57;35.86;101508.72;21083395;28;20368;-65
2023/01/22 20:28:45;;;;;;;29.63;5.13;;;;;;;22.52;35.81;101480.84;21038274;28;20041;-64
2023/01/22 20:38:48;;;;;;;10.65;4.15;;;;;;;22.70;35.64;101480.28;21075851;28;20078;-63
2023/01/22 20:48:59;;;;;;;9.18;3.83;;;;;;;22.75;35.42;101432.00;21080427;28;20040;-63
2023/01/22 20:59:04;;;;;;;6.03;3.92;;;;;;;22.80;35.20;101421.66;21080534;28;20032;-64
2023/01/22 21:09:07;;;;;;;5.40;2.85;;;;;;;22.77;34.86;101363.66;21078440;28;20032;-63
2023/01/22 21:19:17;;;;;;;7.97;3.65;;;;;;;22.87;35.20;101367.53;21065060;28;20044;-64
2023/01/22 21:29:22;;;;;;;4.18;2.60;;;;;;;22.90;34.93;101367.81;21078481;28;20039;-64
2023/01/22 21:39:27;;;;;;;4.70;2.88;;;;;;;22.89;34.65;101354.09;21063661;28;20039;-64
2023/01/22 21:49:29;;;;;;;9.30;2.83;;;;;;;22.90;34.53;101339.06;21077358;28;20040;-63
2023/01/22 21:59:31;;;;;;;5.38;2.58;;;;;;;22.89;34.88;101318.69;21062294;28;20483;-63
2023/01/22 22:09:32;;;;;;;3.63;2.60;;;;;;;22.84;34.63;101329.84;21076828;28;20047;-63
2023/01/22 22:19:33;;;;;;;5.20;2.78;;;;;;;22.80;34.97;101312.84;21061957;28;20086;-63
2023/01/22 22:29:37;;;;;;;4.90;2.90;;;;;;;22.81;35.24;101294.13;21075364;28;20048;-63
2023/01/22 22:39:38;;;;;;;3.60;2.58;;;;;;;22.78;35.17;101197.91;21063659;28;20024;-64
2023/01/22 22:49:39;;;;;;;4.63;2.72;;;;;;;22.77;35.11;101193.47;21071184;28;20059;-64
2023/01/22 22:59:41;;;;;;;3.60;2.45;;;;;;;22.78;35.06;101197.06;21077522;28;20399;-63
2023/01/22 23:09:48;;;;;;;2.80;2.45;;;;;;;22.62;35.38;101210.25;21089306;28;20395;-63
2023/01/22 23:19:49;;;;;;;2.70;2.28;;;;;;;22.71;35.61;101241.19;21058193;28;20390;-65
2023/01/22 23:29:52;;;;;;;3.50;2.42;;;;;;;22.69;35.22;101244.25;21085902;28;20052;-63
2023/01/22 23:39:54;;;;;;;3.60;2.10;;;;;;;22.64;35.47;101229.50;21073943;28;20101;-63
2023/01/22 23:49:55;;;;;;;4.93;3.30;;;;;;;22.62;35.26;101224.19;21085305;28;20048;-64
2023/01/22 23:59:59;;;;;;;5.78;4.18;;;;;;;22.56;35.87;101212.25;21068384;28;20040;-62
